Time;durP1;ratioP1;P1;durP2;ratioP2;P2;SDS_P1;SDS_P2;PMS_P1;PMS_P2;Temp;Humidity;BMP_temperature;BMP_pressure;BME280_temperature;BME280_humidity;BME280_pressure;Samples;Min_cycle;Max_cycle;Signal;HPM_P1;HPM_P2
2022/11/18 00:01:19;;;;;;;;;;;9.30;97.00;;;;;;5070813;28;20031;-73
2022/11/18 00:03:44;;;;;;;;;;;9.30;97.00;;;;;;5048677;28;19967;-72
2022/11/18 00:06:11;;;;;;;;;;;9.30;97.00;;;;;;5048154;28;20710;-73
2022/11/18 00:08:37;;;;;;;;;;;9.30;97.00;;;;;;5048398;28;19912;-73
2022/11/18 00:14:17;;;;;;;;;;;9.30;97.00;;;;;;5047381;28;19972;-73
2022/11/18 00:16:42;;;;;;;;;;;9.30;97.00;;;;;;5055271;28;19919;-73
2022/11/18 00:19:08;;;;;;;;;;;9.30;96.90;;;;;;5071186;28;19927;-73
2022/11/18 00:21:33;;;;;;;;;;;9.30;97.00;;;;;;5088011;28;19923;-73
2022/11/18 00:23:59;;;;;;;;;;;9.30;96.90;;;;;;5078980;28;19995;-73
2022/11/18 00:26:24;;;;;;;;;;;9.30;96.90;;;;;;5068010;28;19908;-73
2022/11/18 00:28:49;;;;;;;;;;;9.30;96.90;;;;;;5067442;28;20014;-73
2022/11/18 00:31:15;;;;;;;;;;;9.30;96.90;;;;;;5066225;28;19920;-73
2022/11/18 00:33:40;;;;;;;;;;;9.30;96.90;;;;;;5088015;28;20028;-73
2022/11/18 00:36:07;;;;;;;;;;;9.30;96.90;;;;;;5087712;28;19908;-73
2022/11/18 00:38:33;;;;;;;;;;;9.30;96.90;;;;;;5069655;28;20004;-73
2022/11/18 00:41:08;;;;;;;;;;;9.30;96.90;;;;;;5067073;28;20023;-73
2022/11/18 00:43:33;;;;;;;;;;;9.30;96.90;;;;;;5067446;28;20319;-73
2022/11/18 00:45:59;;;;;;;;;;;9.30;96.90;;;;;;5070971;28;19911;-73
2022/11/18 00:48:25;;;;;;;;;;;9.30;96.90;;;;;;5087855;28;19916;-73
2022/11/18 00:50:51;;;;;;;;;;;9.30;96.90;;;;;;5077688;28;19912;-73
2022/11/18 00:53:17;;;;;;;;;;;9.30;96.90;;;;;;5066744;28;20384;-73
2022/11/18 00:55:43;;;;;;;;;;;9.30;96.90;;;;;;5068187;28;20277;-73
2022/11/18 00:58:09;;;;;;;;;;;9.40;96.90;;;;;;5067784;28;19943;-74
2022/11/18 01:00:34;;;;;;;;;;;9.40;96.90;;;;;;5067034;28;19924;-73
2022/11/18 01:03:00;;;;;;;;;;;9.40;96.90;;;;;;5058802;28;20604;-73
2022/11/18 01:05:25;;;;;;;;;;;9.40;96.90;;;;;;5066410;28;20289;-73
2022/11/18 01:07:51;;;;;;;;;;;9.30;96.90;;;;;;5053751;28;19948;-73
2022/11/18 01:10:16;;;;;;;;;;;9.40;96.90;;;;;;5047076;28;20048;-73
2022/11/18 01:15:26;;;;;;;;;;;9.40;96.90;;;;;;5046953;28;19992;-73
2022/11/18 01:17:51;;;;;;;;;;;9.40;96.90;;;;;;5046921;28;20010;-73
2022/11/18 01:20:17;;;;;;;;;;;9.40;96.90;;;;;;5069941;28;19916;-73
2022/11/18 01:22:42;;;;;;;;;;;9.40;96.90;;;;;;5086225;28;19920;-73
2022/11/18 01:25:08;;;;;;;;;;;9.40;96.90;;;;;;5087185;28;19922;-73
2022/11/18 01:27:34;;;;;;;;;;;9.40;96.90;;;;;;5087043;28;20525;-73
2022/11/18 01:29:59;;;;;;;;;;;9.40;96.90;;;;;;5081873;28;20019;-73
2022/11/18 01:32:26;;;;;;;;;;;9.40;96.90;;;;;;5067111;28;20090;-73
2022/11/18 01:34:51;;;;;;;;;;;9.40;96.90;;;;;;5064759;28;20265;-73
2022/11/18 01:37:17;;;;;;;;;;;9.40;96.90;;;;;;5071917;28;19923;-73
2022/11/18 01:39:43;;;;;;;;;;;9.40;96.90;;;;;;5066815;28;19926;-73
2022/11/18 01:42:16;;;;;;;;;;;9.40;96.90;;;;;;5066580;28;19916;-73
2022/11/18 01:44:53;;;;;;;;;;;9.40;97.00;;;;;;5066637;28;20385;-73
2022/11/18 01:47:19;;;;;;;;;;;9.40;97.00;;;;;;5067235;28;19920;-73
2022/11/18 01:49:45;;;;;;;;;;;9.40;97.00;;;;;;5074220;28;19939;-73
2022/11/18 01:52:11;;;;;;;;;;;9.40;96.90;;;;;;5065821;28;20333;-74
2022/11/18 01:54:39;;;;;;;;;;;9.40;96.90;;;;;;5066142;28;19941;-73
2022/11/18 01:57:08;;;;;;;;;;;9.40;96.90;;;;;;5066297;28;19920;-73
2022/11/18 01:59:35;;;;;;;;;;;9.40;96.90;;;;;;5065964;28;19919;-73
2022/11/18 02:02:02;;;;;;;;;;;9.40;96.90;;;;;;5059028;28;19920;-73
2022/11/18 02:04:27;;;;;;;;;;;9.40;96.90;;;;;;5064595;28;20591;-73
2022/11/18 02:06:53;;;;;;;;;;;9.40;97.00;;;;;;5065904;28;19913;-73
2022/11/18 02:09:19;;;;;;;;;;;9.40;97.00;;;;;;5071401;28;19951;-73
2022/11/18 02:11:55;;;;;;;;;;;9.40;97.00;;;;;;5086055;28;19916;-73
2022/11/18 02:14:23;;;;;;;;;;;9.40;97.00;;;;;;5085879;28;19951;-73
2022/11/18 02:17:07;;;;;;;;;;;9.40;97.00;;;;;;5086448;28;19947;-73
2022/11/18 02:19:33;;;;;;;;;;;9.40;97.10;;;;;;5085748;28;19912;-74
2022/11/18 02:22:28;;;;;;;;;;;9.40;97.10;;;;;;5074583;28;19928;-73
2022/11/18 02:24:53;;;;;;;;;;;9.40;97.00;;;;;;5068345;28;19920;-73
2022/11/18 02:27:31;;;;;;;;;;;9.40;97.10;;;;;;5066521;28;19912;-73
2022/11/18 02:30:02;;;;;;;;;;;9.40;97.10;;;;;;5065351;28;19916;-73
2022/11/18 02:32:48;;;;;;;;;;;9.40;97.10;;;;;;5050647;28;20652;-73
2022/11/18 02:35:16;;;;;;;;;;;9.40;97.10;;;;;;5045541;28;19913;-73
2022/11/18 02:37:59;;;;;;;;;;;9.40;97.10;;;;;;5056744;28;20568;-73
2022/11/18 02:40:27;;;;;;;;;;;9.40;97.10;;;;;;5064830;28;19970;-73
2022/11/18 02:43:11;;;;;;;;;;;9.40;97.20;;;;;;5081266;28;19943;-73
2022/11/18 02:45:38;;;;;;;;;;;9.40;97.20;;;;;;5085767;28;20006;-73
2022/11/18 02:48:09;;;;;;;;;;;9.30;97.20;;;;;;5085987;28;19995;-73
2022/11/18 02:50:36;;;;;;;;;;;9.30;97.20;;;;;;5077439;28;20429;-73
2022/11/18 02:53:04;;;;;;;;;;;9.30;97.20;;;;;;5065421;28;19913;-73
2022/11/18 02:55:31;;;;;;;;;;;9.30;97.20;;;;;;5065204;28;19913;-73
2022/11/18 02:57:57;;;;;;;;;;;9.30;97.20;;;;;;5065634;28;19953;-73
2022/11/18 03:00:23;;;;;;;;;;;9.30;97.20;;;;;;5064928;28;19912;-73
2022/11/18 03:02:48;;;;;;;;;;;9.30;97.20;;;;;;5047778;28;19913;-73
2022/11/18 03:05:37;;;;;;;;;;;9.30;97.20;;;;;;5045500;28;19956;-73
2022/11/18 03:08:08;;;;;;;;;;;9.30;97.20;;;;;;5047141;28;19989;-73
2022/11/18 03:10:37;;;;;;;;;;;9.30;97.10;;;;;;5044928;28;20391;-73
2022/11/18 03:13:11;;;;;;;;;;;9.30;97.10;;;;;;5045200;28;19909;-73
2022/11/18 03:16:00;;;;;;;;;;;9.30;97.10;;;;;;5063669;28;20005;-73
2022/11/18 03:18:41;;;;;;;;;;;9.20;97.10;;;;;;5067350;28;19967;-73
2022/11/18 03:21:06;;;;;;;;;;;9.30;97.10;;;;;;5084721;28;19916;-73
2022/11/18 03:23:32;;;;;;;;;;;9.30;97.10;;;;;;5084293;28;19908;-73
2022/11/18 03:26:00;;;;;;;;;;;9.30;97.10;;;;;;5085298;28;19916;-73
2022/11/18 03:28:29;;;;;;;;;;;9.30;97.10;;;;;;5088671;28;19966;-73
2022/11/18 03:30:54;;;;;;;;;;;9.30;97.10;;;;;;5075446;28;20114;-73
2022/11/18 03:33:23;;;;;;;;;;;9.30;97.10;;;;;;5068750;28;20081;-73
2022/11/18 03:35:50;;;;;;;;;;;9.30;97.10;;;;;;5068616;28;19916;-74
2022/11/18 03:38:17;;;;;;;;;;;9.20;97.10;;;;;;5053604;28;19912;-74
2022/11/18 03:40:47;;;;;;;;;;;9.30;97.10;;;;;;5048712;28;19948;-73
2022/11/18 03:43:15;;;;;;;;;;;9.30;97.10;;;;;;5048054;28;20289;-73
2022/11/18 03:45:48;;;;;;;;;;;9.30;97.10;;;;;;5047504;28;19913;-74
2022/11/18 03:48:15;;;;;;;;;;;9.30;97.10;;;;;;5072069;28;19919;-73
2022/11/18 03:50:44;;;;;;;;;;;9.30;97.00;;;;;;5078872;28;19923;-73
2022/11/18 03:53:10;;;;;;;;;;;9.30;97.00;;;;;;5068251;28;20032;-73
2022/11/18 03:55:38;;;;;;;;;;;9.30;97.00;;;;;;5066875;28;20066;-73
2022/11/18 03:58:06;;;;;;;;;;;9.30;97.10;;;;;;5067941;28;19916;-73
2022/11/18 04:00:35;;;;;;;;;;;9.30;97.00;;;;;;5063980;28;19912;-73
2022/11/18 04:03:00;;;;;;;;;;;9.30;97.00;;;;;;5066842;28;20009;-73
2022/11/18 04:05:26;;;;;;;;;;;9.30;97.10;;;;;;5069101;28;20642;-73
2022/11/18 04:07:57;;;;;;;;;;;9.30;97.00;;;;;;5055778;28;19924;-73
2022/11/18 04:10:30;;;;;;;;;;;9.30;97.00;;;;;;5047644;28;19919;-73
2022/11/18 04:13:01;;;;;;;;;;;9.30;97.00;;;;;;5048103;28;20706;-73
2022/11/18 04:15:29;;;;;;;;;;;9.30;97.00;;;;;;5069589;28;19919;-74
2022/11/18 04:17:54;;;;;;;;;;;9.30;97.00;;;;;;5086224;28;19912;-73
2022/11/18 04:20:20;;;;;;;;;;;9.30;97.10;;;;;;5087598;28;19918;-74
2022/11/18 04:22:46;;;;;;;;;;;9.30;97.10;;;;;;5088071;28;19957;-73
2022/11/18 04:25:12;;;;;;;;;;;9.30;97.10;;;;;;5088423;28;20370;-73
2022/11/18 04:27:37;;;;;;;;;;;9.30;97.10;;;;;;5088523;28;19912;-73
2022/11/18 04:30:04;;;;;;;;;;;9.30;97.10;;;;;;5081134;28;19969;-73
2022/11/18 04:32:30;;;;;;;;;;;9.30;97.10;;;;;;5066081;28;19974;-73
2022/11/18 04:34:55;;;;;;;;;;;9.30;97.10;;;;;;5066794;28;19912;-73
2022/11/18 04:37:21;;;;;;;;;;;9.30;97.10;;;;;;5059581;28;20430;-73
2022/11/18 04:39:46;;;;;;;;;;;9.30;97.10;;;;;;5046136;28;19913;-73
2022/11/18 04:42:12;;;;;;;;;;;9.30;97.10;;;;;;5052216;28;20068;-73
2022/11/18 04:44:37;;;;;;;;;;;9.30;97.10;;;;;;5068489;28;19913;-73
2022/11/18 04:47:04;;;;;;;;;;;9.40;97.10;;;;;;5075400;28;19912;-73
2022/11/18 04:49:29;;;;;;;;;;;9.40;97.10;;;;;;5073893;28;19985;-73
2022/11/18 04:51:55;;;;;;;;;;;9.30;97.10;;;;;;5067989;28;19930;-73
2022/11/18 04:54:21;;;;;;;;;;;9.40;97.10;;;;;;5068016;28;19935;-73
2022/11/18 04:56:47;;;;;;;;;;;9.40;97.10;;;;;;5068031;28;19962;-73
2022/11/18 04:59:13;;;;;;;;;;;9.40;97.10;;;;;;5067566;28;19913;-73
2022/11/18 05:01:39;;;;;;;;;;;9.30;97.10;;;;;;5063834;28;19920;-73
2022/11/18 05:04:06;;;;;;;;;;;9.30;97.10;;;;;;5067703;28;20520;-73
2022/11/18 05:06:32;;;;;;;;;;;9.30;97.10;;;;;;5066088;28;19970;-73
2022/11/18 05:08:59;;;;;;;;;;;9.40;97.20;;;;;;5046965;28;19962;-73
2022/11/18 05:14:09;;;;;;;;;;;9.30;97.20;;;;;;5047609;28;19920;-73
2022/11/18 05:16:35;;;;;;;;;;;9.30;97.20;;;;;;5055134;28;19917;-73
2022/11/18 05:19:01;;;;;;;;;;;9.30;97.20;;;;;;5068815;28;20740;-73
2022/11/18 05:21:26;;;;;;;;;;;9.30;97.20;;;;;;5086890;28;19923;-73
2022/11/18 05:23:52;;;;;;;;;;;9.30;97.20;;;;;;5086865;28;19908;-73
2022/11/18 05:26:17;;;;;;;;;;;9.30;97.20;;;;;;5085489;28;19916;-73
2022/11/18 05:28:43;;;;;;;;;;;9.30;97.20;;;;;;5087030;28;19912;-73
2022/11/18 05:31:09;;;;;;;;;;;9.30;97.20;;;;;;5068296;28;19951;-73
2022/11/18 05:33:35;;;;;;;;;;;9.30;97.20;;;;;;5062351;28;20061;-73
2022/11/18 05:36:05;;;;;;;;;;;9.30;97.20;;;;;;5066783;28;20379;-73
2022/11/18 05:38:31;;;;;;;;;;;9.30;97.20;;;;;;5049212;28;19923;-73
2022/11/18 05:40:57;;;;;;;;;;;9.30;97.20;;;;;;5046904;28;19916;-73
2022/11/18 05:43:22;;;;;;;;;;;9.30;97.20;;;;;;5047058;28;19913;-73
2022/11/18 05:45:49;;;;;;;;;;;9.30;97.20;;;;;;5046411;28;19966;-73
2022/11/18 05:48:14;;;;;;;;;;;9.30;97.20;;;;;;5046586;28;19971;-73
2022/11/18 05:50:40;;;;;;;;;;;9.30;97.20;;;;;;5062974;28;20544;-73
2022/11/18 05:53:05;;;;;;;;;;;9.30;97.20;;;;;;5066211;28;19913;-73
2022/11/18 05:55:36;;;;;;;;;;;9.30;97.40;;;;;;5066129;28;19912;-73
2022/11/18 05:58:01;;;;;;;;;;;9.30;97.20;;;;;;5065843;28;20003;-73
2022/11/18 06:00:28;;;;;;;;;;;9.30;97.10;;;;;;5065876;28;20003;-73
2022/11/18 06:02:54;;;;;;;;;;;9.30;97.20;;;;;;5047778;28;20678;-73
2022/11/18 06:05:20;;;;;;;;;;;9.40;97.20;;;;;;5046783;28;19936;-73
2022/11/18 06:07:46;;;;;;;;;;;9.30;97.20;;;;;;5072188;28;19970;-73
2022/11/18 06:10:15;;;;;;;;;;;9.30;97.20;;;;;;5066377;28;20390;-73
2022/11/18 06:12:43;;;;;;;;;;;9.30;97.20;;;;;;5065824;28;19926;-73
2022/11/18 06:15:11;;;;;;;;;;;9.40;97.20;;;;;;5065690;28;19943;-73
2022/11/18 06:17:42;;;;;;;;;;;9.40;97.20;;;;;;5065849;28;19915;-73
2022/11/18 06:20:08;;;;;;;;;;;9.40;97.20;;;;;;5077084;28;19977;-73
2022/11/18 06:22:33;;;;;;;;;;;9.40;97.20;;;;;;5085435;28;19919;-73
2022/11/18 06:24:59;;;;;;;;;;;9.40;97.20;;;;;;5084716;28;20490;-73
2022/11/18 06:27:25;;;;;;;;;;;9.40;97.20;;;;;;5086204;28;20375;-73
2022/11/18 06:29:50;;;;;;;;;;;9.40;97.20;;;;;;5080970;28;19958;-73
2022/11/18 06:32:16;;;;;;;;;;;9.30;97.20;;;;;;5065820;28;19931;-73
2022/11/18 06:34:41;;;;;;;;;;;9.30;97.10;;;;;;5065361;28;19913;-73
2022/11/18 06:37:17;;;;;;;;;;;9.40;97.20;;;;;;5059549;28;19909;-73
2022/11/18 06:39:42;;;;;;;;;;;9.40;97.20;;;;;;5064673;28;19961;-73
2022/11/18 06:42:08;;;;;;;;;;;9.30;97.20;;;;;;5085853;28;19928;-73
2022/11/18 06:44:34;;;;;;;;;;;9.40;97.20;;;;;;5085552;28;19965;-73
2022/11/18 06:47:00;;;;;;;;;;;9.40;97.20;;;;;;5084125;28;19923;-73
2022/11/18 06:49:26;;;;;;;;;;;9.40;97.30;;;;;;5085384;28;20311;-73
2022/11/18 06:51:52;;;;;;;;;;;9.40;97.20;;;;;;5084955;28;19932;-73
2022/11/18 06:54:17;;;;;;;;;;;9.40;97.30;;;;;;5085630;28;20282;-73
2022/11/18 06:56:43;;;;;;;;;;;9.40;97.30;;;;;;5083991;28;19920;-73
2022/11/18 06:59:08;;;;;;;;;;;9.40;97.20;;;;;;5085529;28;19919;-73
2022/11/18 07:01:35;;;;;;;;;;;9.40;97.30;;;;;;5071342;28;19916;-73
2022/11/18 07:04:00;;;;;;;;;;;9.40;97.30;;;;;;5053514;28;19920;-73
2022/11/18 07:06:27;;;;;;;;;;;9.30;97.20;;;;;;5089210;28;20424;-73
2022/11/18 07:08:53;;;;;;;;;;;9.40;97.30;;;;;;5069782;28;19930;-73
2022/11/18 07:11:20;;;;;;;;;;;9.40;97.30;;;;;;5069132;28;20353;-73
2022/11/18 07:13:46;;;;;;;;;;;9.40;97.30;;;;;;5070362;28;20625;-73
2022/11/18 07:16:13;;;;;;;;;;;9.30;97.20;;;;;;5068900;28;19912;-73
2022/11/18 07:18:40;;;;;;;;;;;9.40;97.30;;;;;;5069626;28;20048;-73
2022/11/18 07:21:06;;;;;;;;;;;9.30;97.30;;;;;;5081417;28;20373;-73
2022/11/18 07:23:32;;;;;;;;;;;9.40;97.30;;;;;;5068495;28;19977;-73
2022/11/18 07:25:58;;;;;;;;;;;9.40;97.30;;;;;;5069139;28;19956;-73
2022/11/18 07:28:24;;;;;;;;;;;9.40;97.30;;;;;;5069261;28;20428;-73
2022/11/18 07:30:49;;;;;;;;;;;9.40;97.30;;;;;;5067422;28;19909;-73
2022/11/18 07:33:15;;;;;;;;;;;9.40;97.30;;;;;;5049083;28;19913;-73
2022/11/18 07:35:40;;;;;;;;;;;9.40;97.30;;;;;;5047368;28;19984;-73
2022/11/18 07:38:06;;;;;;;;;;;9.40;97.30;;;;;;5063657;28;19916;-73
2022/11/18 07:40:31;;;;;;;;;;;9.40;97.30;;;;;;5067731;28;19912;-73
2022/11/18 07:42:57;;;;;;;;;;;9.40;97.30;;;;;;5069224;28;20517;-73
2022/11/18 07:45:23;;;;;;;;;;;9.40;97.30;;;;;;5069549;28;19912;-73
2022/11/18 07:47:48;;;;;;;;;;;9.40;97.30;;;;;;5069240;28;20004;-73
2022/11/18 07:50:15;;;;;;;;;;;9.40;97.20;;;;;;5074988;28;20007;-73
2022/11/18 07:52:40;;;;;;;;;;;9.40;97.30;;;;;;5068892;28;19916;-73
2022/11/18 07:55:06;;;;;;;;;;;9.40;97.30;;;;;;5069454;28;20278;-73
2022/11/18 07:57:32;;;;;;;;;;;9.40;97.30;;;;;;5068668;28;19920;-73
2022/11/18 07:59:57;;;;;;;;;;;9.40;97.20;;;;;;5067819;28;19912;-73
2022/11/18 08:02:23;;;;;;;;;;;9.40;97.20;;;;;;5053770;28;20431;-73
2022/11/18 08:04:48;;;;;;;;;;;9.40;97.20;;;;;;5065631;28;20011;-73
2022/11/18 08:07:13;;;;;;;;;;;9.40;97.30;;;;;;5068701;28;19912;-73
2022/11/18 08:09:39;;;;;;;;;;;9.50;97.20;;;;;;5080397;28;19966;-73
2022/11/18 08:12:05;;;;;;;;;;;9.50;97.20;;;;;;5088283;28;20002;-73
2022/11/18 08:14:30;;;;;;;;;;;9.50;97.20;;;;;;5088161;28;19912;-73
2022/11/18 08:16:56;;;;;;;;;;;9.50;97.20;;;;;;5088329;28;19913;-73
2022/11/18 08:19:21;;;;;;;;;;;9.50;97.20;;;;;;5087741;28;20360;-73
2022/11/18 08:21:47;;;;;;;;;;;9.50;97.20;;;;;;5087472;28;20421;-74
2022/11/18 08:24:12;;;;;;;;;;;9.50;97.10;;;;;;5082725;28;19916;-73
2022/11/18 08:26:38;;;;;;;;;;;9.50;97.10;;;;;;5066416;28;19921;-73
2022/11/18 08:29:03;;;;;;;;;;;9.50;97.10;;;;;;5068379;28;19912;-73
2022/11/18 08:31:30;;;;;;;;;;;9.50;97.10;;;;;;5061751;28;20004;-73
2022/11/18 08:33:56;;;;;;;;;;;9.50;97.10;;;;;;5048534;28;20417;-73
2022/11/18 08:36:22;;;;;;;;;;;9.50;97.10;;;;;;5048098;28;19913;-73
2022/11/18 08:38:48;;;;;;;;;;;9.50;97.10;;;;;;5047882;28;19913;-73
2022/11/18 08:41:15;;;;;;;;;;;9.60;97.10;;;;;;5067615;28;19982;-73
2022/11/18 08:43:41;;;;;;;;;;;9.60;97.10;;;;;;5067528;28;19970;-73
2022/11/18 08:46:06;;;;;;;;;;;9.60;97.00;;;;;;5067596;28;19948;-73
2022/11/18 08:48:32;;;;;;;;;;;9.60;97.00;;;;;;5067650;28;19909;-73
2022/11/18 08:50:57;;;;;;;;;;;9.70;97.10;;;;;;5074647;28;19909;-73
2022/11/18 08:53:23;;;;;;;;;;;9.70;96.90;;;;;;5067840;28;19919;-73
2022/11/18 08:55:53;;;;;;;;;;;9.70;96.90;;;;;;5068196;28;19916;-73
2022/11/18 08:58:19;;;;;;;;;;;9.70;96.90;;;;;;5086584;28;19920;-73
2022/11/18 09:00:44;;;;;;;;;;;9.70;96.90;;;;;;5076452;28;19919;-73
2022/11/18 09:03:10;;;;;;;;;;;9.80;96.90;;;;;;5067687;28;19965;-73
2022/11/18 09:05:35;;;;;;;;;;;9.80;96.90;;;;;;5067634;28;19948;-73
2022/11/18 09:08:00;;;;;;;;;;;9.70;96.90;;;;;;5053776;28;19916;-73
2022/11/18 09:10:27;;;;;;;;;;;9.80;96.90;;;;;;5046151;28;19962;-73
2022/11/18 09:12:52;;;;;;;;;;;9.80;96.90;;;;;;5056281;28;19920;-73
2022/11/18 09:15:18;;;;;;;;;;;9.80;96.90;;;;;;5087229;28;20341;-73
2022/11/18 09:17:43;;;;;;;;;;;9.80;96.80;;;;;;5085770;28;19999;-73
2022/11/18 09:20:09;;;;;;;;;;;9.90;96.80;;;;;;5086860;28;19997;-73
2022/11/18 09:22:35;;;;;;;;;;;9.90;96.80;;;;;;5087057;28;20042;-73
2022/11/18 09:25:01;;;;;;;;;;;9.90;96.90;;;;;;5086459;28;19986;-73
2022/11/18 09:27:26;;;;;;;;;;;9.90;96.90;;;;;;5085838;28;20413;-73
2022/11/18 09:29:52;;;;;;;;;;;9.90;96.80;;;;;;5079675;28;19916;-73
2022/11/18 09:32:18;;;;;;;;;;;9.90;96.80;;;;;;5053552;28;20833;-73
2022/11/18 09:34:44;;;;;;;;;;;9.90;96.80;;;;;;5046987;28;20038;-73
2022/11/18 09:37:09;;;;;;;;;;;9.90;96.90;;;;;;5046672;28;20007;-73
2022/11/18 09:39:35;;;;;;;;;;;9.90;96.90;;;;;;5046783;28;19920;-73
2022/11/18 09:42:20;;;;;;;;;;;10.00;96.90;;;;;;5047384;28;20331;-73
2022/11/18 09:45:08;;;;;;;;;;;10.00;96.90;;;;;;5046636;28;20293;-73
2022/11/18 09:47:34;;;;;;;;;;;10.00;96.90;;;;;;5072531;28;19962;-73
2022/11/18 09:50:04;;;;;;;;;;;10.00;96.90;;;;;;5083203;28;19915;-73
2022/11/18 09:52:32;;;;;;;;;;;10.00;96.80;;;;;;5066944;28;19919;-73
2022/11/18 09:54:58;;;;;;;;;;;10.10;96.80;;;;;;5066933;28;19999;-73
2022/11/18 09:57:42;;;;;;;;;;;10.10;96.90;;;;;;5065900;28;20552;-73
2022/11/18 10:00:14;;;;;;;;;;;10.10;96.90;;;;;;5065907;28;19920;-73
2022/11/18 10:02:39;;;;;;;;;;;10.10;96.90;;;;;;5057959;28;20293;-73
2022/11/18 10:05:21;;;;;;;;;;;10.10;96.90;;;;;;5086842;28;19919;-73
2022/11/18 10:08:05;;;;;;;;;;;10.10;96.80;;;;;;5074873;28;20273;-73
2022/11/18 10:10:33;;;;;;;;;;;10.20;96.90;;;;;;5065995;28;19919;-73
2022/11/18 10:13:07;;;;;;;;;;;10.10;96.80;;;;;;5066348;28;19943;-73
2022/11/18 10:15:37;;;;;;;;;;;10.20;96.90;;;;;;5066507;28;20362;-73
2022/11/18 10:18:06;;;;;;;;;;;10.20;96.90;;;;;;5066447;28;19915;-73
2022/11/18 10:20:31;;;;;;;;;;;10.20;97.10;;;;;;5078550;28;19960;-73
2022/11/18 10:23:06;;;;;;;;;;;10.20;96.80;;;;;;5084315;28;20299;-73
2022/11/18 10:25:32;;;;;;;;;;;10.20;96.80;;;;;;5085650;28;20003;-73
2022/11/18 10:28:01;;;;;;;;;;;10.30;96.80;;;;;;5085326;28;20412;-73
2022/11/18 10:30:26;;;;;;;;;;;10.30;96.80;;;;;;5074502;28;19916;-73
2022/11/18 10:32:53;;;;;;;;;;;10.30;96.80;;;;;;5047682;28;19908;-73
2022/11/18 10:35:24;;;;;;;;;;;10.30;96.70;;;;;;5045991;28;19951;-73
2022/11/18 10:38:00;;;;;;;;;;;10.30;96.80;;;;;;5055982;28;19935;-73
2022/11/18 10:40:26;;;;;;;;;;;10.30;96.80;;;;;;5065834;28;19913;-73
2022/11/18 10:42:52;;;;;;;;;;;10.40;96.70;;;;;;5059743;28;19924;-74
2022/11/18 10:45:31;;;;;;;;;;;10.40;96.70;;;;;;5066340;28;19916;-73
2022/11/18 10:47:56;;;;;;;;;;;10.50;96.70;;;;;;5065824;28;19959;-73
2022/11/18 10:50:29;;;;;;;;;;;10.50;96.60;;;;;;5073327;28;19944;-73
2022/11/18 10:52:55;;;;;;;;;;;10.50;96.50;;;;;;5066182;28;19908;-73
2022/11/18 10:55:24;;;;;;;;;;;10.60;96.60;;;;;;5063967;28;19919;-74
2022/11/18 10:57:51;;;;;;;;;;;10.60;96.70;;;;;;5064984;28;19908;-73
2022/11/18 11:00:32;;;;;;;;;;;10.70;96.50;;;;;;5068865;28;20002;-74
2022/11/18 11:02:57;;;;;;;;;;;10.70;96.50;;;;;;5058350;28;19920;-74
2022/11/18 11:05:23;;;;;;;;;;;10.70;96.40;;;;;;5064281;28;20702;-73
2022/11/18 11:08:03;;;;;;;;;;;10.60;96.40;;;;;;5052285;28;19917;-74
2022/11/18 11:10:28;;;;;;;;;;;10.70;96.50;;;;;;5043731;28;19998;-75
2022/11/18 11:12:56;;;;;;;;;;;10.60;96.40;;;;;;5075992;28;19947;-73
2022/11/18 11:15:34;;;;;;;;;;;10.70;96.40;;;;;;5044579;28;19924;-73
2022/11/18 11:20:55;;;;;;;;;;;10.70;96.50;;;;;;5083416;28;20526;-73
2022/11/18 11:23:24;;;;;;;;;;;10.70;96.40;;;;;;5085304;28;19912;-74
2022/11/18 11:25:50;;;;;;;;;;;10.70;96.50;;;;;;5085620;28;19916;-73
2022/11/18 11:28:36;;;;;;;;;;;10.70;96.50;;;;;;5085255;28;19912;-73
2022/11/18 11:31:07;;;;;;;;;;;10.80;96.50;;;;;;5067765;28;19962;-73
2022/11/18 11:33:46;;;;;;;;;;;10.80;96.50;;;;;;5057073;28;19938;-73
2022/11/18 11:36:26;;;;;;;;;;;10.80;96.40;;;;;;5085369;28;20015;-73
2022/11/18 11:38:55;;;;;;;;;;;10.80;96.40;;;;;;5044740;28;19909;-73
2022/11/18 11:41:33;;;;;;;;;;;10.80;96.40;;;;;;5043770;28;20519;-73
2022/11/18 11:44:15;;;;;;;;;;;10.80;96.40;;;;;;5042923;28;19917;-73
2022/11/18 11:49:53;;;;;;;;;;;10.90;96.40;;;;;;5074815;28;19970;-73
2022/11/18 11:52:29;;;;;;;;;;;11.00;96.40;;;;;;5068033;28;20351;-73
2022/11/18 11:55:14;;;;;;;;;;;11.00;96.30;;;;;;5067962;28;19916;-73
2022/11/18 11:57:58;;;;;;;;;;;11.00;96.50;;;;;;5067766;28;19912;-73
2022/11/18 12:00:23;;;;;;;;;;;11.10;96.00;;;;;;5066272;28;19912;-73
2022/11/18 12:02:55;;;;;;;;;;;11.10;96.00;;;;;;5067174;28;20335;-73
2022/11/18 12:05:23;;;;;;;;;;;11.10;96.10;;;;;;5067253;28;19919;-73
2022/11/18 12:07:55;;;;;;;;;;;11.10;96.00;;;;;;5073331;28;19916;-73
2022/11/18 12:10:39;;;;;;;;;;;11.10;96.00;;;;;;5067365;28;20514;-73
2022/11/18 12:13:10;;;;;;;;;;;11.10;96.00;;;;;;5068151;28;19920;-73
2022/11/18 12:15:54;;;;;;;;;;;11.10;96.10;;;;;;5067603;28;19919;-73
2022/11/18 12:18:29;;;;;;;;;;;11.10;96.20;;;;;;5067411;28;19913;-73
2022/11/18 12:20:54;;;;;;;;;;;11.00;96.20;;;;;;5084911;28;20341;-73
2022/11/18 12:23:23;;;;;;;;;;;11.10;96.20;;;;;;5087495;28;19954;-72
2022/11/18 12:26:02;;;;;;;;;;;11.00;96.20;;;;;;5088313;28;20030;-73
2022/11/18 12:28:27;;;;;;;;;;;11.00;96.30;;;;;;5088839;28;19912;-73
2022/11/18 12:31:11;;;;;;;;;;;11.00;96.30;;;;;;5067207;28;19943;-73
2022/11/18 12:33:44;;;;;;;;;;;11.00;96.30;;;;;;5068254;28;19993;-73
2022/11/18 12:36:09;;;;;;;;;;;11.00;96.30;;;;;;5068246;28;19916;-73
2022/11/18 12:38:35;;;;;;;;;;;11.10;96.40;;;;;;5055605;28;19916;-73
2022/11/18 12:43:45;;;;;;;;;;;11.00;96.30;;;;;;5087654;28;19931;-73
2022/11/18 12:43:46;;;;;;;;;;;11.10;96.60;;;;;;5086810;28;19912;-72
2022/11/18 12:46:40;;;;;;;;;;;11.00;96.30;;;;;;5077724;28;19931;-73
2022/11/18 12:49:21;;;;;;;;;;;11.10;96.30;;;;;;5064274;28;20116;-73
2022/11/18 12:51:50;;;;;;;;;;;11.10;96.20;;;;;;5068694;28;20296;-73
2022/11/18 12:54:23;;;;;;;;;;;11.10;96.20;;;;;;5067880;28;19966;-73
2022/11/18 12:56:49;;;;;;;;;;;11.20;96.20;;;;;;5082245;28;20331;-73
2022/11/18 12:59:14;;;;;;;;;;;11.20;96.20;;;;;;5085843;28;19922;-73
2022/11/18 13:01:40;;;;;;;;;;;11.20;96.20;;;;;;5060803;28;20355;-73
2022/11/18 13:04:08;;;;;;;;;;;11.30;96.10;;;;;;5066076;28;19912;-73
2022/11/18 13:06:36;;;;;;;;;;;11.30;96.10;;;;;;5064699;28;19916;-73
2022/11/18 13:09:03;;;;;;;;;;;11.30;96.00;;;;;;5046291;28;20008;-73
2022/11/18 13:11:46;;;;;;;;;;;11.30;95.90;;;;;;5045983;28;19927;-73
2022/11/18 13:19:55;;;;;;;;;;;11.40;96.00;;;;;;5064950;28;19918;-73
2022/11/18 13:25:20;;;;;;;;;;;11.40;95.90;;;;;;5066026;28;19962;-73
2022/11/18 13:28:08;;;;;;;;;;;11.40;95.90;;;;;;5065580;28;20478;-73
2022/11/18 13:30:35;;;;;;;;;;;11.40;95.90;;;;;;5066493;28;19916;-73
2022/11/18 13:33:01;;;;;;;;;;;11.40;95.90;;;;;;5065174;28;20021;-73
2022/11/18 13:35:28;;;;;;;;;;;11.40;95.90;;;;;;5066014;28;19999;-73
2022/11/18 13:37:53;;;;;;;;;;;11.40;96.00;;;;;;5053377;28;20707;-73
2022/11/18 13:40:21;;;;;;;;;;;11.40;96.00;;;;;;5045705;28;19912;-73
2022/11/18 13:42:47;;;;;;;;;;;11.30;96.00;;;;;;5045790;28;20019;-73
2022/11/18 13:45:12;;;;;;;;;;;11.40;96.10;;;;;;5049353;28;20028;-73
2022/11/18 13:47:41;;;;;;;;;;;11.30;96.20;;;;;;5065262;28;20033;-73
2022/11/18 13:50:09;;;;;;;;;;;11.30;96.20;;;;;;5066763;28;19938;-74
2022/11/18 13:52:38;;;;;;;;;;;11.40;96.20;;;;;;5065577;28;20293;-73
2022/11/18 13:55:16;;;;;;;;;;;11.40;96.20;;;;;;5063936;28;19916;-73
2022/11/18 13:57:45;;;;;;;;;;;11.30;96.20;;;;;;5065060;28;19960;-73
2022/11/18 14:00:19;;;;;;;;;;;11.30;96.20;;;;;;5064807;28;20027;-73
2022/11/18 14:02:48;;;;;;;;;;;11.30;96.20;;;;;;5074192;28;19927;-73
2022/11/18 14:05:16;;;;;;;;;;;11.30;96.20;;;;;;5081331;28;19955;-73
2022/11/18 14:07:54;;;;;;;;;;;11.40;96.20;;;;;;5067708;28;20430;-74
2022/11/18 14:10:27;;;;;;;;;;;11.30;96.20;;;;;;5085149;28;20006;-73
2022/11/18 14:12:57;;;;;;;;;;;11.30;96.20;;;;;;5085627;28;20007;-74
2022/11/18 14:15:29;;;;;;;;;;;11.30;96.10;;;;;;5084346;28;19939;-74
2022/11/18 14:17:56;;;;;;;;;;;11.30;96.20;;;;;;5085444;28;19919;-73
2022/11/18 14:20:22;;;;;;;;;;;11.30;96.30;;;;;;5083903;28;19940;-73
2022/11/18 14:22:50;;;;;;;;;;;11.30;96.70;;;;;;5085627;28;20613;-74
2022/11/18 14:25:22;;;;;;;;;;;11.30;96.40;;;;;;5086204;28;19977;-73
2022/11/18 14:27:49;;;;;;;;;;;11.20;96.40;;;;;;5084772;28;20009;-73
2022/11/18 14:30:34;;;;;;;;;;;11.20;96.50;;;;;;5076882;28;19913;-73
2022/11/18 14:33:14;;;;;;;;;;;11.20;96.50;;;;;;5065289;28;19920;-73
2022/11/18 14:35:41;;;;;;;;;;;11.20;96.50;;;;;;5071128;28;19912;-73
2022/11/18 14:38:11;;;;;;;;;;;11.20;96.50;;;;;;5071264;28;19917;-73
2022/11/18 14:40:37;;;;;;;;;;;11.10;96.60;;;;;;5065315;28;19922;-73
2022/11/18 14:43:03;;;;;;;;;;;11.10;96.60;;;;;;5065793;28;19912;-73
2022/11/18 14:45:28;;;;;;;;;;;11.10;96.60;;;;;;5064914;28;19920;-73
2022/11/18 14:47:54;;;;;;;;;;;11.10;96.60;;;;;;5064841;28;19982;-73
2022/11/18 14:50:19;;;;;;;;;;;11.10;96.60;;;;;;5067724;28;19924;-73
2022/11/18 14:52:45;;;;;;;;;;;11.00;96.60;;;;;;5066081;28;20026;-73
2022/11/18 14:55:10;;;;;;;;;;;11.00;96.60;;;;;;5064138;28;19918;-73
2022/11/18 14:57:36;;;;;;;;;;;11.00;96.70;;;;;;5065181;28;20376;-73